createdAt,value
2023-06-07T00:00:02.580Z,98073.03
2023-06-07T00:02:42.316Z,98072.00
2023-06-07T00:05:11.915Z,98070.50
2023-06-07T00:07:39.597Z,98068.06
2023-06-07T00:10:08.047Z,98071.28
2023-06-07T00:12:35.902Z,98065.84
2023-06-07T00:15:03.591Z,98068.31
2023-06-07T00:17:31.568Z,98067.97
2023-06-07T00:19:59.012Z,98069.91
2023-06-07T00:22:26.641Z,98072.19
2023-06-07T00:24:55.056Z,98068.88
2023-06-07T00:27:22.708Z,98065.78
2023-06-07T00:29:49.970Z,98065.25
2023-06-07T00:32:17.682Z,98061.72
2023-06-07T00:34:45.033Z,98063.31
2023-06-07T00:37:12.669Z,98065.25
2023-06-07T00:39:39.949Z,98070.78
2023-06-07T00:42:07.952Z,98068.44
2023-06-07T00:44:35.403Z,98060.19
2023-06-07T00:47:03.872Z,98064.50
2023-06-07T00:49:31.844Z,98070.78
2023-06-07T00:51:59.790Z,98059.06
2023-06-07T00:54:28.980Z,98061.69
2023-06-07T00:56:56.913Z,98062.03
2023-06-07T00:59:24.426Z,98060.75
2023-06-07T01:01:56.977Z,98069.31
2023-06-07T01:04:25.816Z,98059.38
2023-06-07T01:06:53.727Z,98061.22
2023-06-07T01:09:22.941Z,98064.56
2023-06-07T01:11:54.527Z,98064.72
2023-06-07T01:14:23.541Z,98062.41
2023-06-07T01:16:54.323Z,98063.41
2023-06-07T01:19:35.832Z,98061.59
2023-06-07T01:22:09.309Z,98063.06
2023-06-07T01:24:38.690Z,98058.31
2023-06-07T01:27:08.410Z,98057.63
2023-06-07T01:29:36.248Z,98054.44
2023-06-07T01:32:09.256Z,98048.47
2023-06-07T01:34:37.851Z,98052.44
2023-06-07T01:37:06.983Z,98058.09
2023-06-07T01:39:35.183Z,98052.50
2023-06-07T01:42:04.624Z,98060.75
2023-06-07T01:44:33.156Z,98051.16
2023-06-07T01:47:00.815Z,98061.91
2023-06-07T01:49:28.204Z,98056.75
2023-06-07T01:51:55.858Z,98057.94
2023-06-07T01:54:23.543Z,98055.81
2023-06-07T01:57:04.717Z,98058.09
2023-06-07T02:00:09.710Z,98051.47
2023-06-07T02:03:28.239Z,98057.03
2023-06-07T02:06:02.644Z,98049.75
2023-06-07T02:08:43.082Z,98051.13
2023-06-07T02:11:11.867Z,98041.72
2023-06-07T02:13:44.624Z,98040.06
2023-06-07T02:16:12.944Z,98043.84
2023-06-07T02:18:42.234Z,98042.84
2023-06-07T02:21:11.374Z,98036.41
2023-06-07T02:23:39.777Z,98044.72
2023-06-07T02:26:07.073Z,98039.75
2023-06-07T02:28:34.592Z,98037.28
2023-06-07T02:31:01.931Z,98040.53
2023-06-07T02:33:29.638Z,98045.81
2023-06-07T02:35:57.211Z,98039.56
2023-06-07T02:38:24.917Z,98042.97
2023-06-07T02:40:54.439Z,98041.53
2023-06-07T02:43:22.032Z,98043.47
2023-06-07T02:45:49.371Z,98038.56
2023-06-07T02:48:17.646Z,98046.16
2023-06-07T02:50:45.023Z,98043.38
2023-06-07T02:53:12.580Z,98040.75
2023-06-07T02:55:39.869Z,98044.72
2023-06-07T02:58:08.334Z,98037.63
2023-06-07T03:00:35.643Z,98040.25
2023-06-07T03:03:06.649Z,98049.13
2023-06-07T03:05:34.924Z,98039.88
2023-06-07T03:08:03.827Z,98041.09
2023-06-07T03:10:31.297Z,98037.44
2023-06-07T03:12:58.858Z,98044.94
2023-06-07T03:15:26.151Z,98043.91
2023-06-07T03:17:53.757Z,98046.16
2023-06-07T03:20:22.813Z,98043.22
2023-06-07T03:22:50.493Z,98049.69
2023-06-07T03:25:17.876Z,98042.63
2023-06-07T03:27:46.613Z,98044.97
2023-06-07T03:30:14.016Z,98045.19
2023-06-07T03:32:42.293Z,98049.34
2023-06-07T03:35:09.889Z,98050.63
2023-06-07T03:37:37.469Z,98049.69
2023-06-07T03:40:06.081Z,98055.81
2023-06-07T03:42:33.852Z,98049.25
2023-06-07T03:45:01.223Z,98054.03
2023-06-07T03:47:29.434Z,98051.06
2023-06-07T03:49:56.708Z,98045.94
2023-06-07T03:52:24.303Z,98052.06
2023-06-07T03:54:51.572Z,98056.56
2023-06-07T03:57:19.212Z,98057.25
2023-06-07T03:59:46.700Z,98058.44
2023-06-07T04:02:14.237Z,98064.56
2023-06-07T04:04:41.557Z,98063.91
2023-06-07T04:07:09.968Z,98068.88
2023-06-07T04:09:37.271Z,98064.44
2023-06-07T04:12:06.777Z,98065.44
2023-06-07T04:14:34.077Z,98060.31
2023-06-07T04:17:02.077Z,98061.63
2023-06-07T04:19:29.527Z,98067.91
2023-06-07T04:21:57.116Z,98059.13
2023-06-07T04:24:24.452Z,98072.38
2023-06-07T04:26:54.550Z,98067.56
2023-06-07T04:29:24.864Z,98071.38
2023-06-07T04:31:58.071Z,98073.69
2023-06-07T04:34:25.788Z,98065.28
2023-06-07T04:36:54.058Z,98072.41
2023-06-07T04:39:21.736Z,98063.47
2023-06-07T04:41:50.383Z,98062.63
2023-06-07T04:44:29.071Z,98066.78
2023-06-07T04:47:05.162Z,98071.41
2023-06-07T04:49:36.627Z,98070.25
2023-06-07T04:52:06.851Z,98072.09
2023-06-07T04:54:37.755Z,98069.91
2023-06-07T04:57:10.106Z,98070.25
2023-06-07T04:59:44.055Z,98062.16
2023-06-07T05:02:12.272Z,98068.59
2023-06-07T05:04:39.596Z,98072.41
2023-06-07T05:07:15.016Z,98077.72
2023-06-07T05:09:42.386Z,98075.41
2023-06-07T05:12:10.244Z,98072.75
2023-06-07T05:14:37.591Z,98075.06
2023-06-07T05:17:06.757Z,98076.41
2023-06-07T05:19:34.058Z,98073.41
2023-06-07T05:22:01.664Z,98078.53
2023-06-07T05:24:29.009Z,98071.03
2023-06-07T05:26:56.635Z,98071.38
2023-06-07T05:29:23.957Z,98063.38
2023-06-07T05:31:51.617Z,98073.28
2023-06-07T05:34:19.121Z,98075.91
2023-06-07T05:36:46.721Z,98083.22
2023-06-07T05:39:13.991Z,98071.22
2023-06-07T05:41:41.669Z,98076.53
2023-06-07T05:44:08.966Z,98082.78
2023-06-07T05:46:36.513Z,98082.44
2023-06-07T05:49:04.471Z,98084.84
2023-06-07T05:51:32.494Z,98088.63
2023-06-07T05:53:59.994Z,98087.41
2023-06-07T05:56:29.019Z,98085.06
2023-06-07T05:58:56.272Z,98082.16
2023-06-07T06:01:23.997Z,98083.09
2023-06-07T06:03:51.333Z,98085.66
2023-06-07T06:06:19.663Z,98091.22
2023-06-07T06:08:47.183Z,98094.91
2023-06-07T06:11:15.384Z,98095.16
2023-06-07T06:13:44.606Z,98085.94
2023-06-07T06:16:13.072Z,98098.75
2023-06-07T06:18:44.360Z,98091.75
2023-06-07T06:21:11.921Z,98092.09
2023-06-07T06:23:39.491Z,98100.63
2023-06-07T06:26:07.160Z,98094.94
2023-06-07T06:28:34.406Z,98095.84
2023-06-07T06:31:04.383Z,98090.91
2023-06-07T06:33:31.881Z,98100.47
2023-06-07T06:36:00.706Z,98108.81
2023-06-07T06:38:28.027Z,98104.69
2023-06-07T06:40:55.618Z,98103.72
2023-06-07T06:43:23.015Z,98096.72
2023-06-07T06:45:50.615Z,98100.19
2023-06-07T06:48:17.901Z,98102.72
2023-06-07T06:50:48.154Z,98105.41
2023-06-07T06:53:15.689Z,98105.56
2023-06-07T06:55:43.239Z,98106.28
2023-06-07T06:58:10.591Z,98107.78
2023-06-07T07:00:41.121Z,98107.28
2023-06-07T07:03:08.535Z,98104.56
2023-06-07T07:05:36.325Z,98112.59
2023-06-07T07:08:04.735Z,98106.09
2023-06-07T07:10:32.360Z,98105.19
2023-06-07T07:12:59.811Z,98107.78
2023-06-07T07:15:28.972Z,98111.75
2023-06-07T07:17:56.414Z,98106.88
2023-06-07T07:20:24.220Z,98106.06
2023-06-07T07:22:51.605Z,98106.88
2023-06-07T07:25:19.243Z,98097.41
2023-06-07T07:27:46.509Z,98104.97
2023-06-07T07:30:14.440Z,98093.28
2023-06-07T07:32:41.785Z,98096.78
2023-06-07T07:35:09.591Z,98096.19
2023-06-07T07:37:39.548Z,98093.31
2023-06-07T07:40:10.577Z,98094.31
2023-06-07T07:42:39.293Z,98100.50
2023-06-07T07:45:08.411Z,98108.13
2023-06-07T07:47:35.945Z,98104.19
2023-06-07T07:50:05.763Z,98106.25
2023-06-07T07:52:33.344Z,98101.28
2023-06-07T07:55:02.201Z,98108.69
2023-06-07T07:57:30.808Z,98104.06
2023-06-07T07:59:58.511Z,98102.09
2023-06-07T08:02:25.849Z,98110.44
2023-06-07T08:04:55.027Z,98112.94
2023-06-07T08:07:22.838Z,98107.84
2023-06-07T08:09:50.494Z,98122.25
2023-06-07T08:12:17.944Z,98114.50
2023-06-07T08:14:45.702Z,98122.88
2023-06-07T08:17:12.992Z,98119.59
2023-06-07T08:19:41.045Z,98123.66
2023-06-07T08:22:08.440Z,98115.00
2023-06-07T08:24:36.105Z,98115.66
2023-06-07T08:27:03.612Z,98108.06
2023-06-07T08:29:31.340Z,98102.75
2023-06-07T08:31:59.109Z,98104.16
2023-06-07T08:34:31.694Z,98108.84
2023-06-07T08:37:01.724Z,98102.69
2023-06-07T08:39:30.030Z,98101.91
2023-06-07T08:42:03.857Z,98109.22
2023-06-07T08:44:31.559Z,98108.81
2023-06-07T08:47:06.600Z,98112.63
2023-06-07T08:49:35.048Z,98104.06
2023-06-07T08:52:15.633Z,98112.50
2023-06-07T08:54:48.424Z,98108.38
2023-06-07T08:57:20.208Z,98106.75
2023-06-07T08:59:49.795Z,98108.50
2023-06-07T09:02:21.158Z,98117.78
2023-06-07T09:04:48.927Z,98109.31
2023-06-07T09:07:16.578Z,98111.47
2023-06-07T09:09:45.118Z,98107.44
2023-06-07T09:12:12.795Z,98108.84
2023-06-07T09:14:41.409Z,98111.47
2023-06-07T09:17:09.857Z,98117.22
2023-06-07T09:19:42.751Z,98122.63
2023-06-07T09:22:18.469Z,98124.56
2023-06-07T09:24:46.269Z,98115.91
2023-06-07T09:27:14.718Z,98110.16
2023-06-07T09:29:44.587Z,98109.16
2023-06-07T09:32:25.191Z,98115.16
2023-06-07T09:35:11.245Z,98119.81
2023-06-07T09:37:47.776Z,98115.78
2023-06-07T09:40:16.521Z,98107.91
2023-06-07T09:42:45.038Z,98106.22
2023-06-07T09:45:17.101Z,98113.22
2023-06-07T09:47:44.913Z,98114.03
2023-06-07T09:50:14.806Z,98114.16
2023-06-07T09:52:42.527Z,98103.72
2023-06-07T09:55:28.659Z,98105.94
2023-06-07T09:57:57.623Z,98105.00
2023-06-07T10:00:27.279Z,98101.66
2023-06-07T10:03:07.268Z,98094.25
2023-06-07T10:05:36.204Z,98106.41
2023-06-07T10:08:05.998Z,98097.22
2023-06-07T10:10:36.316Z,98092.56
2023-06-07T10:13:06.949Z,98094.16
2023-06-07T10:15:37.085Z,98098.25
2023-06-07T10:18:25.513Z,98090.50
2023-06-07T10:21:02.064Z,98085.53
2023-06-07T10:24:08.527Z,98089.69
2023-06-07T10:27:00.978Z,98085.88
2023-06-07T10:29:47.252Z,98073.75
2023-06-07T10:32:31.631Z,98068.06
2023-06-07T10:35:02.144Z,98077.66
2023-06-07T10:37:32.260Z,98079.97
2023-06-07T10:40:07.270Z,98074.88
2023-06-07T10:42:35.374Z,98071.19
2023-06-07T10:45:02.958Z,98070.97
2023-06-07T10:47:33.739Z,98064.97
2023-06-07T10:50:01.697Z,98064.66
2023-06-07T10:52:29.530Z,98063.34
2023-06-07T10:54:57.119Z,98059.84
2023-06-07T10:57:39.244Z,98063.00
2023-06-07T11:00:32.706Z,98069.53
2023-06-07T11:03:06.401Z,98062.97
2023-06-07T11:06:07.831Z,98057.13
2023-06-07T11:08:38.249Z,98055.47
2023-06-07T11:11:41.373Z,98066.19
2023-06-07T11:14:08.931Z,98064.53
2023-06-07T11:16:36.825Z,98059.00
2023-06-07T11:19:11.244Z,98060.28
2023-06-07T11:21:57.101Z,98059.81
2023-06-07T11:24:25.839Z,98053.63
2023-06-07T11:26:53.488Z,98053.56
2023-06-07T11:29:22.195Z,98047.75
2023-06-07T11:32:02.194Z,98048.91
2023-06-07T11:34:32.760Z,98050.66
2023-06-07T11:37:15.797Z,98050.00
2023-06-07T11:39:44.246Z,98041.22
2023-06-07T11:42:11.691Z,98046.19
2023-06-07T11:44:39.989Z,98039.75
2023-06-07T11:47:08.533Z,98039.91
2023-06-07T11:49:42.164Z,98035.44
2023-06-07T11:52:09.882Z,98038.16
2023-06-07T11:54:43.507Z,98034.88
2023-06-07T11:57:11.326Z,98040.16
2023-06-07T11:59:40.810Z,98032.53
2023-06-07T12:02:09.856Z,98033.13
2023-06-07T12:04:38.315Z,98036.25
2023-06-07T12:07:19.672Z,98023.75
2023-06-07T12:09:50.802Z,98022.63
2023-06-07T12:12:18.142Z,98024.00
2023-06-07T12:14:48.363Z,98026.78
2023-06-07T12:17:15.780Z,98027.53
2023-06-07T12:19:43.718Z,98027.34
2023-06-07T12:22:11.015Z,98017.75
2023-06-07T12:24:41.682Z,98017.19
2023-06-07T12:27:13.314Z,98012.50
2023-06-07T12:29:42.310Z,98001.94
2023-06-07T12:32:11.314Z,97999.13
2023-06-07T12:34:45.444Z,98007.69
2023-06-07T12:37:12.928Z,98008.38
2023-06-07T12:39:40.961Z,97998.78
2023-06-07T12:42:08.959Z,97994.31
2023-06-07T12:44:36.594Z,97993.97
2023-06-07T12:47:04.140Z,97999.38
2023-06-07T12:49:32.695Z,97991.28
2023-06-07T12:52:00.073Z,98007.34
2023-06-07T12:54:27.982Z,97997.59
2023-06-07T12:56:55.776Z,98002.75
2023-06-07T12:59:23.384Z,97994.09
2023-06-07T13:01:51.023Z,98000.78
2023-06-07T13:04:18.715Z,97995.38
2023-06-07T13:06:46.121Z,97994.34
2023-06-07T13:09:13.831Z,97982.00
2023-06-07T13:11:43.202Z,97980.38
2023-06-07T13:14:11.123Z,97975.91
2023-06-07T13:16:38.975Z,97980.97
2023-06-07T13:19:06.901Z,97980.13
2023-06-07T13:21:34.249Z,97986.81
2023-06-07T13:24:01.960Z,97986.28
2023-06-07T13:26:29.683Z,97982.31
2023-06-07T13:28:57.399Z,97980.03
2023-06-07T13:31:26.620Z,97975.63
2023-06-07T13:33:54.550Z,97982.88
2023-06-07T13:36:21.868Z,97984.13
2023-06-07T13:38:50.068Z,97980.88
2023-06-07T13:41:17.388Z,97980.50
2023-06-07T13:43:59.964Z,97975.13
2023-06-07T13:46:35.691Z,97979.66
2023-06-07T13:49:03.375Z,97975.47
2023-06-07T13:51:30.796Z,97984.84
2023-06-07T13:53:58.736Z,97973.28
2023-06-07T13:56:27.222Z,97976.38
2023-06-07T13:58:59.037Z,97965.16
2023-06-07T14:01:28.303Z,97963.50
2023-06-07T14:03:57.094Z,97967.16
2023-06-07T14:06:24.715Z,97958.91
2023-06-07T14:08:52.339Z,97967.72
2023-06-07T14:11:19.818Z,97975.41
2023-06-07T14:13:47.436Z,97965.63
2023-06-07T14:16:14.786Z,97968.75
2023-06-07T14:18:42.387Z,97970.53
2023-06-07T14:21:09.884Z,97967.09
2023-06-07T14:23:37.499Z,97985.84
2023-06-07T14:26:04.874Z,97975.28
2023-06-07T14:28:32.587Z,97979.59
2023-06-07T14:31:01.327Z,97989.44
2023-06-07T14:33:29.115Z,97985.31
2023-06-07T14:35:56.491Z,97979.88
2023-06-07T14:38:24.522Z,97974.16
2023-06-07T14:40:51.920Z,97992.97
2023-06-07T14:43:19.494Z,97981.19
2023-06-07T14:45:46.842Z,97982.69
2023-06-07T14:48:14.633Z,97987.94
2023-06-07T14:50:41.937Z,97985.91
2023-06-07T14:53:09.594Z,97982.28
2023-06-07T14:55:36.939Z,98001.66
2023-06-07T14:58:05.968Z,97990.69
2023-06-07T15:00:34.850Z,97988.03
2023-06-07T15:03:02.582Z,97985.91
2023-06-07T15:05:30.536Z,97986.94
2023-06-07T15:07:58.142Z,97994.09
2023-06-07T15:10:25.464Z,97991.88
2023-06-07T15:12:53.192Z,98002.63
2023-06-07T15:15:22.268Z,98000.22
2023-06-07T15:17:52.079Z,97999.16
2023-06-07T15:20:21.104Z,97996.75
2023-06-07T15:22:48.814Z,97990.25
2023-06-07T15:25:16.235Z,97994.78
2023-06-07T15:27:43.992Z,97993.97
2023-06-07T15:30:13.110Z,97994.34
2023-06-07T15:32:40.824Z,97994.31
2023-06-07T15:35:10.900Z,97985.19
2023-06-07T15:37:40.892Z,97995.53
2023-06-07T15:40:09.214Z,97989.97
2023-06-07T15:42:39.466Z,97981.22
2023-06-07T15:45:07.847Z,97982.75
2023-06-07T15:47:35.638Z,97984.28
2023-06-07T15:50:03.390Z,97989.91
2023-06-07T15:52:31.308Z,97990.38
2023-06-07T15:54:58.621Z,97989.41
2023-06-07T15:57:26.181Z,97995.25
2023-06-07T15:59:53.547Z,97992.44
2023-06-07T16:02:21.125Z,97988.72
2023-06-07T16:04:48.608Z,97986.25
2023-06-07T16:07:16.264Z,97991.59
2023-06-07T16:09:43.572Z,97993.66
2023-06-07T16:12:12.222Z,97997.78
2023-06-07T16:14:41.611Z,97999.25
2023-06-07T16:17:09.309Z,97995.34
2023-06-07T16:19:37.801Z,98007.09
2023-06-07T16:22:05.593Z,98000.97
2023-06-07T16:24:32.901Z,98005.31
2023-06-07T16:27:00.866Z,98009.00
2023-06-07T16:29:28.178Z,98007.16
2023-06-07T16:31:55.889Z,98012.31
2023-06-07T16:34:23.284Z,98016.41
2023-06-07T16:36:50.977Z,98012.72
2023-06-07T16:39:18.249Z,98008.63
2023-06-07T16:41:45.880Z,98011.13
2023-06-07T16:44:13.656Z,98011.91
2023-06-07T16:46:43.136Z,98012.94
2023-06-07T16:49:12.466Z,98012.75
2023-06-07T16:51:40.233Z,98021.78
2023-06-07T16:54:07.580Z,98017.25
2023-06-07T16:56:35.277Z,98014.81
2023-06-07T16:59:02.609Z,98024.25
2023-06-07T17:01:32.322Z,98021.78
2023-06-07T17:04:00.315Z,98020.97
2023-06-07T17:06:27.933Z,98025.03
2023-06-07T17:08:55.656Z,98025.66
2023-06-07T17:11:23.266Z,98024.16
2023-06-07T17:13:50.592Z,98020.66
2023-06-07T17:16:18.376Z,98025.78
2023-06-07T17:18:45.794Z,98023.09
2023-06-07T17:21:13.825Z,98025.56
2023-06-07T17:23:41.917Z,98033.16
2023-06-07T17:26:10.113Z,98023.09
2023-06-07T17:28:37.423Z,98019.97
2023-06-07T17:31:05.428Z,98022.84
2023-06-07T17:33:32.994Z,98018.75
2023-06-07T17:36:00.620Z,98020.59
2023-06-07T17:38:27.979Z,98019.13
2023-06-07T17:40:55.548Z,98025.47
2023-06-07T17:43:22.876Z,98027.72
2023-06-07T17:45:51.142Z,98020.91
2023-06-07T17:48:18.924Z,98026.75
2023-06-07T17:50:47.608Z,98021.00
2023-06-07T17:53:15.571Z,98025.06
2023-06-07T17:55:46.448Z,98022.16
2023-06-07T17:58:14.523Z,98021.91
2023-06-07T18:00:42.336Z,98026.16
2023-06-07T18:03:12.835Z,98028.38
2023-06-07T18:05:40.795Z,98031.84
2023-06-07T18:08:08.292Z,98032.25
2023-06-07T18:10:35.909Z,98026.03
2023-06-07T18:13:04.625Z,98031.47
2023-06-07T18:15:32.742Z,98033.22
2023-06-07T18:18:00.191Z,98031.97
2023-06-07T18:20:28.316Z,98033.13
2023-06-07T18:22:57.955Z,98035.16
2023-06-07T18:25:25.818Z,98034.66
2023-06-07T18:27:53.326Z,98026.53
2023-06-07T18:30:20.894Z,98029.78
2023-06-07T18:32:49.590Z,98038.97
2023-06-07T18:35:17.264Z,98040.16
2023-06-07T18:37:44.568Z,98038.84
2023-06-07T18:40:12.548Z,98046.56
2023-06-07T18:42:39.994Z,98043.53
2023-06-07T18:45:08.964Z,98045.91
2023-06-07T18:47:36.494Z,98047.88
2023-06-07T18:50:05.433Z,98049.47
2023-06-07T18:52:33.471Z,98045.44
2023-06-07T18:55:01.094Z,98050.88
2023-06-07T18:57:28.421Z,98054.44
2023-06-07T18:59:56.044Z,98053.97
2023-06-07T19:02:24.970Z,98054.44
2023-06-07T19:04:52.896Z,98069.66
2023-06-07T19:07:20.389Z,98064.88
2023-06-07T19:09:48.275Z,98063.88
2023-06-07T19:12:15.722Z,98063.69
2023-06-07T19:14:43.676Z,98073.47
2023-06-07T19:17:12.029Z,98081.53
2023-06-07T19:19:40.227Z,98081.25
2023-06-07T19:22:10.697Z,98077.16
2023-06-07T19:24:44.129Z,98072.22
2023-06-07T19:27:12.784Z,98082.28
2023-06-07T19:29:42.265Z,98080.03
2023-06-07T19:32:10.766Z,98074.31
2023-06-07T19:34:38.408Z,98082.91
2023-06-07T19:37:06.791Z,98079.75
2023-06-07T19:39:34.512Z,98080.91
2023-06-07T19:42:07.987Z,98079.94
2023-06-07T19:44:38.985Z,98084.75
2023-06-07T19:47:08.103Z,98092.44
2023-06-07T19:49:36.394Z,98090.50
2023-06-07T19:52:04.161Z,98088.53
2023-06-07T19:54:31.973Z,98095.75
2023-06-07T19:56:59.675Z,98090.16
2023-06-07T19:59:27.345Z,98094.34
2023-06-07T20:01:55.338Z,98085.09
2023-06-07T20:04:22.961Z,98088.63
2023-06-07T20:06:50.278Z,98084.69
2023-06-07T20:09:17.863Z,98087.16
2023-06-07T20:11:45.140Z,98093.16
2023-06-07T20:14:13.454Z,98090.50
2023-06-07T20:16:40.821Z,98095.13
2023-06-07T20:19:08.432Z,98095.31
2023-06-07T20:21:37.235Z,98091.19
2023-06-07T20:24:05.979Z,98090.19
2023-06-07T20:26:33.305Z,98093.22
2023-06-07T20:29:02.582Z,98088.56
2023-06-07T20:31:30.045Z,98087.25
2023-06-07T20:33:57.685Z,98087.06
2023-06-07T20:36:27.173Z,98088.72
2023-06-07T20:38:54.823Z,98085.91
2023-06-07T20:41:22.068Z,98094.22
2023-06-07T20:43:49.719Z,98092.59
2023-06-07T20:46:17.129Z,98083.16
2023-06-07T20:48:44.814Z,98085.94
2023-06-07T20:51:12.103Z,98084.31
2023-06-07T20:53:39.773Z,98084.31
2023-06-07T20:56:07.205Z,98077.34
2023-06-07T20:58:34.825Z,98076.06
2023-06-07T21:01:02.110Z,98089.16
2023-06-07T21:03:29.888Z,98087.66
2023-06-07T21:05:57.437Z,98080.19
2023-06-07T21:08:25.036Z,98090.00
2023-06-07T21:10:52.358Z,98091.00
2023-06-07T21:13:20.032Z,98079.56
2023-06-07T21:15:47.463Z,98077.25
2023-06-07T21:18:15.202Z,98080.56
2023-06-07T21:20:42.486Z,98079.88
2023-06-07T21:23:12.268Z,98087.81
2023-06-07T21:25:40.605Z,98089.81
2023-06-07T21:28:08.262Z,98086.47
2023-06-07T21:30:35.878Z,98085.34
2023-06-07T21:33:05.058Z,98082.00
2023-06-07T21:35:33.243Z,98090.97
2023-06-07T21:38:01.287Z,98081.34
2023-06-07T21:40:28.764Z,98093.47
2023-06-07T21:42:56.494Z,98093.63
2023-06-07T21:45:27.820Z,98090.13
2023-06-07T21:47:55.692Z,98092.97
2023-06-07T21:50:23.211Z,98090.31
2023-06-07T21:52:52.026Z,98085.34
2023-06-07T21:55:19.332Z,98089.31
2023-06-07T21:57:47.960Z,98084.19
2023-06-07T22:00:16.397Z,98094.28
2023-06-07T22:02:44.065Z,98087.50
2023-06-07T22:05:11.470Z,98078.22
2023-06-07T22:07:40.081Z,98084.03
2023-06-07T22:10:08.124Z,98087.97
2023-06-07T22:12:38.083Z,98087.97
2023-06-07T22:15:06.116Z,98086.13
2023-06-07T22:17:34.566Z,98089.78
2023-06-07T22:20:09.642Z,98092.59
2023-06-07T22:22:37.632Z,98093.09
2023-06-07T22:25:05.634Z,98088.91
2023-06-07T22:27:34.096Z,98098.38
2023-06-07T22:30:01.506Z,98098.66
2023-06-07T22:32:30.215Z,98102.47
2023-06-07T22:35:05.481Z,98103.47
2023-06-07T22:37:36.896Z,98094.34
2023-06-07T22:40:06.570Z,98096.47
2023-06-07T22:42:35.272Z,98099.28
2023-06-07T22:45:03.723Z,98088.84
2023-06-07T22:47:31.580Z,98095.28
2023-06-07T22:50:01.970Z,98093.44
2023-06-07T22:52:33.908Z,98090.16
2023-06-07T22:55:02.457Z,98089.47
2023-06-07T22:57:32.099Z,98078.22
2023-06-07T22:59:59.487Z,98074.22
2023-06-07T23:02:30.014Z,98069.09
2023-06-07T23:04:57.697Z,98067.78
2023-06-07T23:07:25.463Z,98071.06
2023-06-07T23:09:52.857Z,98069.41
2023-06-07T23:12:21.332Z,98070.38
2023-06-07T23:14:49.749Z,98065.06
2023-06-07T23:17:18.609Z,98059.56
2023-06-07T23:19:46.719Z,98064.19
2023-06-07T23:22:14.305Z,98065.34
2023-06-07T23:24:42.161Z,98061.84
2023-06-07T23:27:09.750Z,98060.16
2023-06-07T23:29:37.104Z,98059.97
2023-06-07T23:32:05.784Z,98060.59
2023-06-07T23:34:34.723Z,98067.88
2023-06-07T23:37:02.374Z,98070.13
2023-06-07T23:39:29.655Z,98075.44
2023-06-07T23:41:57.465Z,98068.66
2023-06-07T23:44:28.930Z,98072.28
2023-06-07T23:46:57.073Z,98074.09
2023-06-07T23:49:35.602Z,98080.50
2023-06-07T23:52:04.274Z,98074.84
2023-06-07T23:54:31.666Z,98079.75
2023-06-07T23:57:00.304Z,98078.25
2023-06-07T23:59:27.888Z,98070.66
